• Join FlightAware (Why Join?)
  • Login
  • US Flag 
11:33PM EDT


 

Airport Tracker/Info


-or-


 

Live Flight TrackerFlight Track Log ✈ UAL4695 ✈ 27-Apr-2013 ✈ KCHS - KEWR

Flight Track Log - Related Links

Times and Time Zones

All times are in EDT time to prevent confusion due to time zone crossing. See the UAL4695 flight status page for this flight to view local times or setup timezone preferences in your user account.

Time Position Orientation Groundspeed Altitude Reporting Facility
EDT Latitude Longitude Course Direction KTS MPH feet Rate Location/Type
05:32PM 32.9772 -80.0153 13° North 174 200 3,700  Level Jacksonville Center
05:33PM 33.0414 -79.9933 16° North 197 227 5,400 2,100 Climbing Jacksonville Center
05:34PM 33.2414 -79.9284 North  Level FlightAware Approximate
05:34PM 33.1119 -79.9736 13° North 237 273 7,900  Level Jacksonville Center
05:35PM 33.3307 -79.9013 23° Northeast  Level FlightAware Approximate
05:35PM 33.1844 -79.9514 14° North 256 295 9,800  Level Jacksonville Center
05:36PM 33.4197 -79.8727 North  Level FlightAware Approximate
05:36PM 33.2633 -79.9289 13° North 267 307 11,000  Level Jacksonville Center
05:37PM 33.5103 -79.8495 13° North  Level FlightAware Approximate
05:37PM 33.3525 -79.9061 12° North 300 345 12,000  Level Jacksonville Center
05:38PM 33.4478 -79.8806 13° North 332 382 13,500 1,560 Climbing Jacksonville Center
05:39PM 33.5431 -79.8525 14° North 344 396 15,200 1,680 Climbing Jacksonville Center
05:40PM 33.6386 -79.8267 13° North 350 403 16,900 1,380 Climbing Jacksonville Center
05:41PM 33.7339 -79.8008 13° North 350 403 18,000 840 Climbing Jacksonville Center
05:42PM 33.8311 -79.7725 14° North 355 409 18,600 780 Climbing Jacksonville Center
05:43PM 33.9328 -79.7439 13° North 360 414 19,600 960 Climbing Jacksonville Center
05:44PM 34.0383 -79.7125 14° North 372 428 20,600 1,080 Climbing Jacksonville Center
05:46PM 34.2383 -79.6589 12° North 384 442 22,900 1,200 Climbing Washington Center
05:47PM 34.3428 -79.6514 North 391 450 24,300 1,200 Climbing Washington Center
05:48PM 34.4600 -79.6422 North 391 450 25,300 960 Climbing Washington Center
05:49PM 34.5686 -79.6400 North 386 444 26,300 960 Climbing Washington Center
05:50PM 34.6753 -79.6325 North 386 444 27,300 900 Climbing Washington Center
05:51PM 34.7861 -79.6256 North 386 444 28,200 900 Climbing Washington Center
05:52PM 34.8928 -79.6156 North 386 444 29,200 960 Climbing Washington Center
05:53PM 35.0036 -79.6083 North 386 444 30,200 1,020 Climbing Washington Center
05:54PM 35.1125 -79.6011 North 386 444 31,300 1,140 Climbing Washington Center
05:55PM 35.2158 -79.5681 15° North 378 435 32,500 1,200 Climbing Washington Center
05:56PM 35.3142 -79.4942 32° Northeast 387 445 33,700 1,080 Climbing Washington Center
05:57PM 35.4125 -79.4250 30° Northeast 393 452 34,700 600 Climbing Washington Center
05:58PM 35.5128 -79.3508 31° Northeast 415 478 35,000 120 Climbing Washington Center
05:59PM 35.6133 -79.2736 32° Northeast 420 483 35,000  Level Washington Center
06:00PM 35.7200 -79.1967 30° Northeast 426 490 35,000  Level Washington Center
06:01PM 35.8308 -79.1172 30° Northeast 442 509 35,000  Level Washington Center
06:02PM 35.9375 -79.0375 31° Northeast 442 509 35,000  Level Washington Center
06:03PM 36.0461 -78.9572 31° Northeast 442 509 35,000  Level Washington Center
06:04PM 36.1547 -78.8797 30° Northeast 447 514 35,000  Level Washington Center
06:05PM 36.2614 -78.7964 32° Northeast 447 514 35,000  Level Washington Center
06:06PM 36.3678 -78.7183 31° Northeast 447 514 35,100 480 Climbing Washington Center
06:07PM 36.4719 -78.6397 31° Northeast 447 514 36,000 420 Climbing Washington Center
06:08PM 36.5783 -78.5611 31° Northeast 439 505 36,000  Level Washington Center
06:09PM 36.6611 -78.4969 32° Northeast 439 505 36,000  Level Washington Center
06:10PM 36.7844 -78.4031 31° Northeast 430 495 36,000  Level Washington Center
06:11PM 36.8906 -78.3214 32° Northeast 435 501 36,000  Level Washington Center
06:12PM 36.9864 -78.2442 33° Northeast 440 506 36,000  Level Washington Center
06:13PM 37.1050 -78.1544 31° Northeast 446 513 36,000  Level Washington Center
06:14PM 37.2089 -78.0769 31° Northeast 438 504 36,000  Level Washington Center
06:15PM 37.3128 -77.9969 31° Northeast 438 504 36,000  Level Washington Center
06:16PM 37.4186 -77.9164 31° Northeast 438 504 36,000  Level Washington Center
06:17PM 37.5267 -77.8308 32° Northeast 438 504 36,000  Level Washington Center
06:18PM 37.6242 -77.7419 36° Northeast 438 504 36,000  Level Washington Center
06:19PM 37.7258 -77.6528 35° Northeast 438 504 36,000  Level Washington Center
06:20PM 37.8256 -77.5608 36° Northeast 443 510 36,000  Level Washington Center
06:21PM 37.9250 -77.4686 36° Northeast 443 510 36,000  Level Washington Center
06:22PM 38.0286 -77.3764 35° Northeast 443 510 36,000  Level Washington Center
06:23PM 38.1258 -77.2864 36° Northeast 437 503 36,000  Level Washington Center
06:24PM 38.2294 -77.1883 37° Northeast 444 511 36,000  Level Washington Center
06:25PM 38.3328 -77.0950 35° Northeast 450 518 36,000 -60 Level Washington Center
06:26PM 38.4339 -77.0017 36° Northeast 450 518 35,900  Descending Washington Center
06:27PM 38.5289 -76.9081 38° Northeast 445 512 36,000  Climbing Washington Center
06:28PM 38.6278 -76.8194 35° Northeast 439 505 36,000  Level Washington Center
06:29PM 38.7225 -76.7225 39° Northeast 439 505 36,000  Level Washington Center
06:30PM 38.8153 -76.6172 41° Northeast 439 505 36,000 -600 Level Washington Center
06:31PM 38.9036 -76.5172 41° Northeast 433 498 34,900 -1,380 Descending Washington Center
06:32PM 38.9939 -76.4089 43° Northeast 433 498 33,300 -2,040 Descending Washington Center
06:33PM 39.0864 -76.3031 42° Northeast 433 498 30,900 -2,400 Descending Washington Center
06:34PM 39.1767 -76.1967 42° Northeast 433 498 28,600 -1,920 Descending Washington Center
06:35PM 39.2583 -76.1061 41° Northeast 433 498 27,100 -840 Descending Washington Center
06:36PM 39.3483 -76.0022 42° Northeast 433 498 27,000 -300 Descending Washington Center
06:37PM 39.4361 -75.8978 43° Northeast 433 498 26,600 -780 Descending Washington Center
06:38PM 39.5258 -75.7933 42° Northeast 433 498 25,500 -1,260 Descending Washington Center
06:39PM 39.6114 -75.6939 42° Northeast 427 491 24,100 -1,680 Descending Washington Center
06:40PM 39.6928 -75.5914 44° Northeast 416 479 22,100 -2,160 Descending Washington Center
06:41PM 39.7739 -75.4942 43° Northeast 404 465 19,900 -2,100 Descending Washington Center
06:42PM 39.8508 -75.4022 43° Northeast 385 443 18,000 -1,980 Descending Washington Center
06:43PM 39.9278 -75.3100 43° Northeast 375 432 16,000 -2,100 Descending Washington Center
06:44PM 40.0006 -75.2206 43° Northeast 362 417 13,800 -1,680 Descending Washington Center
06:46PM 40.1333 -75.0500 44° Northeast 307 353 11,100 -1,380 Descending New York TRACON
06:47PM 40.2000 -74.9833 37° Northeast 275 316 9,800 -1,380 Descending New York TRACON
06:48PM 40.2500 -74.9167 45° Northeast 259 298 8,400 -900 Descending New York TRACON
06:49PM 40.3000 -74.8500 45° Northeast 261 300 8,100 -180 Descending New York TRACON
06:50PM 40.3500 -74.7833 45° Northeast 263 303 8,100 -360 Level New York TRACON
06:51PM 40.4000 -74.7000 52° Northeast 262 302 7,400 -900 Descending New York TRACON
06:52PM 40.4500 -74.6667 27° Northeast 263 303 6,400 -660 Descending New York TRACON
06:53PM 40.5333 -74.6500 North 261 300 6,100 -180 Descending New York TRACON
06:54PM 40.6000 -74.6167 21° North 261 300 6,100  Level New York TRACON
06:55PM 40.6667 -74.6000 11° North 266 306 6,100  Level New York TRACON
06:56PM 40.7500 -74.5833 North 263 303 6,100  Level New York TRACON
06:57PM 40.8167 -74.5667 11° North 265 305 6,100  Level New York TRACON
06:58PM 40.8833 -74.5500 11° North 266 306 6,100  Level New York TRACON
06:59PM 40.9333 -74.5500 360° North 216 249 6,100  Level New York TRACON
07:00PM 41.0000 -74.5333 11° North 210 242 6,100  Level New York TRACON
07:01PM 41.0667 -74.5333 360° North 209 241 6,100 -60 Level New York TRACON
07:02PM 41.1000 -74.4833 48° Northeast 221 254 6,000 -540 Descending New York TRACON
07:03PM 41.1333 -74.4000 62° Northeast 215 247 5,100 -480 Descending New York TRACON
07:04PM 41.1000 -74.3333 124° Southeast 213 245 5,100  Level New York TRACON
07:05PM 41.0667 -74.2833 131° Southeast 213 245 5,100  Level New York TRACON
07:06PM 41.0333 -74.2167 124° Southeast 211 243 5,100 -480 Level New York TRACON
07:07PM 40.9833 -74.1667 143° Southeast 203 234 4,100 -540 Descending New York TRACON
07:08PM 40.9333 -74.1333 153° Southeast 198 228 4,100 -360 Level New York TRACON
07:09PM 40.9000 -74.1000 143° Southeast 193 222 3,500 -600 Descending New York TRACON
07:10PM 40.8333 -74.0833 169° South 189 217 3,000 -540 Descending New York TRACON